Kekaha, HI

9:36 AM HST on August 30, 2014 (GMT -1000)
Barking Sands PMRF | Change Station
CLOSE
Current Station
Airport
Location: Barking Sands,
Elevation: 13 ft
Nearby Weather Stations
Active Advisory: High Surf Advisory

Elev 13 ft 22.02 °N, 159.79 °W | Updated 40 minutes ago

Clear
Clear
81 °F
Feels Like 83 °F
N
6
Wind Variable Wind from SSW

Today
High -- | Low -- °F
--% Chance of Precip.
Yesterday
High -- | Low -- °F
Precip. -- in
6:21 AM 6:57 PM
Waxing Crescent, 24% visible
Pressure 29.97 in
Visibility 10.0 miles
Clouds Clear
Heat Index 83 °F
Dew Point 67 °F
Humidity 62%
Rainfall 0.00 in
Snow Depth Not available.
UV 4 out of 12
Pollen Not available.
Air Quality Not available.
Flu Activity Not available.
METAR PHBK 301856Z AUTO 21005KT 10SM CLR 27/19 A2997 RMK AO2 SLP149 T02720194 TSNO

More Conditions Fewer Conditions

Pressure 29.97 in
Visibility 10.0 miles
Clouds Clear
Heat Index 83 °F
Dew Point 67 °F
Humidity 62%
Rainfall 0.00 in
Snow Depth Not available.
UV 4 out of 12
Pollen Not available.
Air Quality Not available.
Flu Activity Not available.
METAR PHBK 301856Z AUTO 21005KT 10SM CLR 27/19 A2997 RMK AO2 SLP149 T02720194 TSNO

More Conditions Fewer Conditions

10-Day Weather Forecast

Almanac

Astronomy

Aug. 30, 2014 Rise Set
Actual Time 6:21 AM HST 6:57 PM HST
Civil Twilight 5:58 AM HST 7:19 PM HST
Nautical Twilight 5:32 AM HST 7:46 PM HST
Astronomical Twilight 5:05 AM HST 8:13 PM HST
Moon 10:41 AM HST 10:20 PM HST
Length of Visible Light 13h 21m
Length of Day
12h 35m
Tomorrow will be 1m 12s shorter.
Waxing Crescent, 24% of the Moon is Illuminated
Today
Waxing Crescent
Sep 2
First Quarter
Sep 8
Full
Sep 15
Last Quarter
Sep 24
New

Today's Extremes

State Highs State Lows

Community

WunderPhotos

Upload Photos

1,748,614 photos uploaded!

WunderBlogs® & News

Nearby

Snow Depth

Station Depth Elevation
No new snow has been reported.

Earthquake Activity

City Distance Mag. Time & Date
No recent earthquake activity has been reported nearby.
Minimum magnitude displayed is 2.5.

Coastal Water Temperatures

Place Temperature
No Stations Reporting

Nearby Weather Stations